Latest Coastal Weather Observations for McCluer Island

IDD60701

Issued at 9:01 pm CST Monday 25 September 2017 (issued every 10 minutes, with the page automatically refreshed every 10 minutes)

About coastal observations | Map of coastal stations | Coastal observations for NT | Marine services | Other Formats
Station Details ID: 014274 Name: MCCLUER ISLAND Lat: -11.05 Lon: 132.98 Height: 1.4 m
Data from the previous 72 hours. | See also: Recent months at McCluer Island
Date/Time
CST
Temp
°C
Wind Pressure Rain since
9am
mm
Weather Cloud Vis
km
Sea
Height
m
Swell
Dir  Spd
kts
Gust
kts
hPa Trend Height
m
Period
s
Dir
25/09:00pm 27.2 NE 11 14 1010.9 - 0.0 - - - - - - -
25/08:30pm 27.2 NE 11 13 1010.5 - 0.0 - - - - - - -
25/08:00pm 27.0 NE 12 14 1010.2 - 0.0 - - - - - - -
25/07:30pm 27.5 NE 12 13 1010.1 - 0.0 - - - - - - -
25/07:00pm 27.1 NE 12 13 1010.0 - 0.0 - - - - - - -
25/06:30pm 27.2 ENE 11 13 1009.8 - 0.0 - - - - - - -
25/06:00pm 27.4 ENE 12 14 1009.5 - 0.0 - - - - - - -
25/05:30pm 27.5 NE 12 14 1009.4 - 0.0 - - - - - - -
25/05:00pm 28.0 NE 11 13 1009.5 - 0.0 - - - - - - -
25/04:30pm 27.9 ENE 9 11 1009.8 - 0.0 - - - - - - -
25/04:00pm 28.3 E 8 10 1010.1 - 0.0 - - - - - - -
25/03:00pm 28.0 ENE 8 9 1010.5 - 0.0 - - - - - - -
25/02:30pm 28.5 ENE 7 9 1010.8 - 0.0 - - - - - - -
25/02:00pm 28.7 ENE 7 9 1011.2 - 0.0 - - - - - - -
25/01:30pm 28.4 ENE 7 9 1011.4 - 0.0 - - - - - - -
25/01:00pm 29.2 ENE 7 8 1011.8 - 0.0 - - - - - - -
25/12:30pm 28.4 ENE 7 8 1012.3 - 0.0 - - - - - - -
25/12:00pm 28.7 ENE 6 8 1012.8 - 0.0 - - - - - - -
25/11:30am 28.5 E 8 9 1013.0 - 0.0 - - - - - - -
25/11:00am 28.5 E 8 9 1013.0 - 0.0 - - - - - - -
25/10:30am 28.2 E 7 8 1013.2 - 0.0 - - - - - - -
25/10:00am 28.8 E 7 8 1013.3 - 0.0 - - - - - - -
25/09:30am 27.8 E 8 9 1013.2 - 0.0 - - - - - - -
25/09:00am 27.9 E 6 7 1013.1 - 0.0 - - - - - - -
25/08:30am 27.6 E 6 7 1013.0 - 0.0 - - - - - - -
25/08:00am 26.8 ESE 5 6 1012.7 - 0.0 - - - - - - -
25/07:30am 26.1 CALM 0 0 1012.3 - 0.0 - - - - - - -
25/07:00am 24.9 CALM 0 0 1012.0 - 0.0 - - - - - - -
25/06:30am 24.6 CALM 0 0 1011.8 - 0.0 - - - - - - -
25/06:00am 24.7 CALM 0 0 1011.5 - 0.0 - - - - - - -
25/05:30am 24.9 CALM 0 0 1011.3 - 0.0 - - - - - - -
25/05:00am 25.3 SSE 3 4 - - 0.0 - - - - - - -
25/04:30am 26.3 ENE 4 5 1010.7 - 0.0 - - - - - - -
25/04:00am 26.1 E 3 5 1010.4 - 0.0 - - - - - - -
25/03:30am 26.5 ENE 5 6 1010.2 - 0.0 - - - - - - -
25/03:00am 26.6 NE 7 8 1010.3 - 0.0 - - - - - - -
25/02:30am 26.7 NE 8 10 1010.2 - 0.0 - - - - - - -
25/02:00am 26.7 NNE 10 12 1010.3 - 0.0 - - - - - - -
25/01:30am 26.8 NE 11 13 1010.5 - 0.0 - - - - - - -
25/01:00am 27.0 NE 12 14 1010.6 - 0.0 - - - - - - -
25/12:30am 27.0 NE 13 15 1010.7 - 0.0 - - - - - - -
25/12:00am 27.0 NE 10 12 1010.8 - 0.0 - - - - - - -
 
Date/Time
CST
Temp
°C
Wind Pressure Rain since
9am
mm
Weather Cloud Vis
km
Sea
Height
m
Swell
Dir  Spd
kts
Gust
kts
hPa Trend Height
m
Period
s
Dir
24/11:30pm 27.0 NE 11 12 1011.1 - 0.0 - - - - - - -
24/11:00pm 27.1 NE 10 11 1011.1 - 0.0 - - - - - - -
24/10:30pm 27.1 NE 9 10 1011.3 - 0.0 - - - - - - -
24/10:00pm 26.9 NE 10 12 1011.3 - 0.0 - - - - - - -
24/09:30pm 27.0 NE 11 12 1011.1 - 0.0 - - - - - - -
24/09:00pm 26.9 NE 10 12 1010.8 - 0.0 - - - - - - -
24/08:30pm 27.1 NE 10 12 1010.5 - 0.0 - - - - - - -
24/08:00pm 26.8 NE 11 13 1010.1 - 0.0 - - - - - - -
24/07:30pm 27.0 ENE 11 13 1010.2 - 0.0 - - - - - - -
24/07:00pm 27.1 ENE 9 11 1010.1 - 0.0 - - - - - - -
24/06:30pm 27.0 ENE 9 10 1010.1 - 0.0 - - - - - - -
24/06:00pm 27.2 E 9 11 1009.9 - 0.0 - - - - - - -
24/05:30pm 27.6 E 9 10 1009.7 - 0.0 - - - - - - -
24/05:00pm 27.7 ENE 10 11 1009.6 - 0.0 - - - - - - -
24/04:30pm 27.7 E 9 11 1009.5 - 0.0 - - - - - - -
24/04:00pm 28.2 E 9 11 1009.6 - 0.0 - - - - - - -
24/03:30pm 28.1 ENE 9 11 1009.7 - 0.0 - - - - - - -
24/03:00pm 27.8 ENE 8 11 1009.9 - 0.0 - - - - - - -
24/02:30pm 28.2 ENE 9 10 1010.1 - 0.0 - - - - - - -
24/02:00pm 28.3 ENE 9 11 1010.3 - 0.0 - - - - - - -
24/01:30pm 28.3 ENE 9 10 1010.7 - 0.0 - - - - - - -
24/01:00pm 28.5 ENE 9 10 1011.2 - 0.0 - - - - - - -
24/12:30pm 28.2 E 9 11 1011.7 - 0.0 - - - - - - -
24/12:00pm 28.7 E 9 11 1012.1 - 0.0 - - - - - - -
24/11:30am 28.5 E 10 11 1012.4 - 0.0 - - - - - - -
24/11:00am 28.5 E 9 10 1012.6 - 0.0 - - - - - - -
24/10:30am 28.1 E 9 10 1012.7 - 0.0 - - - - - - -
24/10:00am 28.3 E 9 11 1012.9 - 0.0 - - - - - - -
24/09:30am 28.2 E 9 11 1013.1 - 0.0 - - - - - - -
24/09:00am 28.1 E 8 9 1013.1 - 0.0 - - - - - - -
24/08:30am 27.5 E 8 9 1012.9 - 0.0 - - - - - - -
24/08:00am 27.3 E 8 8 1012.7 - 0.0 - - - - - - -
24/07:30am 26.7 E 7 9 1012.4 - 0.0 - - - - - - -
24/07:00am 25.7 ESE 6 8 1012.1 - 0.0 - - - - - - -
24/06:30am 26.4 E 8 10 1011.5 - 0.0 - - - - - - -
24/06:00am 26.4 E 9 11 1011.4 - 0.0 - - - - - - -
24/05:30am 26.4 E 9 11 1011.3 - 0.0 - - - - - - -
24/05:00am 26.5 E 10 11 1011.3 - 0.0 - - - - - - -
24/04:30am 26.6 E 11 12 1010.9 - 0.0 - - - - - - -
24/04:00am 26.6 E 11 12 1010.6 - 0.0 - - - - - - -
24/03:30am 26.5 E 12 14 1010.5 - 0.0 - - - - - - -
24/03:00am 26.5 ENE 12 14 1010.7 - 0.0 - - - - - - -
24/02:30am 26.6 ENE 13 15 1011.0 - 0.0 - - - - - - -
24/02:00am 26.9 ENE 13 15 1011.4 - 0.0 - - - - - - -
24/01:30am 26.9 ENE 14 15 1011.6 - 0.0 - - - - - - -
24/01:00am 27.1 ENE 14 16 1011.8 - 0.0 - - - - - - -
24/12:30am 26.9 ENE 13 15 1011.9 - 0.0 - - - - - - -
24/12:00am 27.4 ENE 13 15 1012.2 - 0.0 - - - - - - -
 
Date/Time
CST
Temp
°C
Wind Pressure Rain since
9am
mm
Weather Cloud Vis
km
Sea
Height
m
Swell
Dir  Spd
kts
Gust
kts
hPa Trend Height
m
Period
s
Dir
23/11:30pm 26.9 NE 13 15 1012.3 - 0.0 - - - - - - -
23/11:00pm 26.9 NE 12 14 1012.4 - 0.0 - - - - - - -
23/10:30pm 27.1 NE 13 15 1012.4 - 0.0 - - - - - - -
23/10:00pm 27.3 NE 14 16 1012.2 - 0.0 - - - - - - -
23/09:30pm 27.3 NE 14 16 1011.8 - 0.0 - - - - - - -
23/09:00pm 26.9 ENE 14 15 1011.5 - 0.0 - - - - - - -
23/08:30pm 27.0 ENE 13 14 1011.4 - 0.0 - - - - - - -
23/08:00pm 27.2 ENE 14 16 1011.3 - 0.0 - - - - - - -
23/07:30pm 27.1 E 13 15 1011.1 - 0.0 - - - - - - -
23/07:00pm 27.0 E 13 15 1010.9 - 0.0 - - - - - - -
23/06:30pm 27.2 E 12 14 1010.8 - 0.0 - - - - - - -
23/06:00pm 27.4 E 13 15 1010.7 - 0.0 - - - - - - -
23/05:30pm 28.1 E 13 14 1010.8 - 0.0 - - - - - - -
23/05:00pm 28.6 E 13 16 1010.5 - 0.0 - - - - - - -
23/04:30pm 28.4 E 12 14 1010.4 - 0.0 - - - - - - -
23/04:00pm 28.3 E 11 13 1010.5 - 0.0 - - - - - - -
23/03:30pm 28.8 E 12 15 1010.6 - 0.0 - - - - - - -
23/03:00pm 28.7 E 12 15 1010.8 - 0.0 - - - - - - -
23/02:30pm 29.1 E 11 13 1011.1 - 0.0 - - - - - - -
23/02:00pm 29.2 E 12 14 1011.5 - 0.0 - - - - - - -
23/01:30pm 29.1 E 12 15 1011.8 - 0.0 - - - - - - -
23/01:00pm 29.1 E 11 13 1012.1 - 0.0 - - - - - - -
23/12:30pm 28.8 E 11 13 1012.3 - 0.0 - - - - - - -
23/12:00pm 28.6 E 11 13 1012.7 - 0.0 - - - - - - -
23/11:30am 29.0 E 11 13 1013.2 - 0.0 - - - - - - -
23/11:00am 28.7 ESE 11 13 1013.5 - 0.0 - - - - - - -
23/10:30am 28.5 E 11 13 1013.7 - 0.0 - - - - - - -
23/10:00am 27.7 ESE 11 13 1013.9 - 0.0 - - - - - - -
23/09:30am 27.6 ESE 12 15 1013.9 - 0.0 - - - - - - -
23/09:00am 27.7 ESE 11 13 1013.7 - 0.0 - - - - - - -
23/08:30am 28.1 ESE 10 13 1013.5 - 0.0 - - - - - - -
23/08:00am 27.3 ESE 11 13 1013.3 - 0.0 - - - - - - -
23/07:30am 26.8 SE 9 11 1012.8 - 0.0 - - - - - - -
23/07:00am 26.6 ESE 11 13 1012.4 - 0.0 - - - - - - -
23/06:30am 26.4 ESE 12 14 1012.2 - 0.0 - - - - - - -
23/06:00am 26.3 E 14 17 1011.9 - 0.0 - - - - - - -
23/05:30am 26.6 E 13 16 1011.6 - 0.0 - - - - - - -
23/05:00am 26.5 E 14 17 1011.5 - 0.0 - - - - - - -
23/04:30am 26.4 E 14 16 1011.3 - 0.0 - - - - - - -
23/04:00am 26.4 E 13 15 1011.3 - 0.0 - - - - - - -
23/03:30am 26.7 E 13 14 1011.3 - 0.0 - - - - - - -
23/03:00am 26.7 E 13 15 1011.4 - 0.0 - - - - - - -
23/02:30am 26.5 E 14 16 1011.4 - 0.0 - - - - - - -
23/02:00am 26.7 ENE 14 16 1011.6 - 0.0 - - - - - - -
23/01:30am 26.7 ENE 14 16 1011.8 - 0.0 - - - - - - -
23/01:00am 26.6 E 14 16 1012.1 - 0.0 - - - - - - -
23/12:30am 26.9 ENE 12 13 1012.2 - 0.0 - - - - - - -
23/12:00am 27.0 ENE 12 13 1012.4 - 0.0 - - - - - - -
 
Date/Time
CST
Temp
°C
Wind Pressure Rain since
9am
mm
Weather Cloud Vis
km
Sea
Height
m
Swell
Dir  Spd
kts
Gust
kts
hPa Trend Height
m
Period
s
Dir
22/11:30pm 27.0 ENE 14 16 1012.7 - 0.0 - - - - - - -
22/11:00pm 27.1 ENE 15 16 1012.7 - 0.0 - - - - - - -
22/10:30pm 27.2 ENE 14 16 1012.7 - 0.0 - - - - - - -
22/10:00pm 27.1 NE 14 17 1012.5 - 0.0 - - - - - - -
22/09:30pm 27.4 NE 14 16 1012.2 - 0.0 - - - - - - -

Other Formats:

Comma delimited format used in spreadsheet applications
http://www.bom.gov.au/fwo/IDD60701/IDD60701.94135.axf

JavaScript Object Notation format (JSON) in row-major order
http://www.bom.gov.au/fwo/IDD60701/IDD60701.94135.json